createdAt,value
2023-03-16T00:00:13.930Z,15.40
2023-03-16T00:02:43.049Z,15.73
2023-03-16T00:05:13.815Z,13.43
2023-03-16T00:07:43.173Z,17.63
2023-03-16T00:10:13.497Z,19.23
2023-03-16T00:12:44.848Z,11.43
2023-03-16T00:15:13.753Z,19.23
2023-03-16T00:17:41.989Z,16.17
2023-03-16T00:20:22.972Z,15.40
2023-03-16T00:22:51.295Z,14.77
2023-03-16T00:25:19.824Z,12.10
2023-03-16T00:27:49.400Z,18.37
2023-03-16T00:30:18.091Z,20.60
2023-03-16T00:32:46.616Z,19.03
2023-03-16T00:35:18.198Z,12.27
2023-03-16T00:37:46.505Z,8.17
2023-03-16T00:40:15.553Z,16.70
2023-03-16T00:42:44.305Z,9.43
2023-03-16T00:45:14.044Z,16.10
2023-03-16T00:47:43.206Z,14.83
2023-03-16T00:50:12.624Z,10.10
2023-03-16T00:52:42.132Z,17.33
2023-03-16T00:55:11.050Z,12.63
2023-03-16T00:57:39.453Z,15.23
2023-03-16T01:00:12.919Z,13.47
2023-03-16T01:02:42.765Z,12.40
2023-03-16T01:05:12.648Z,17.00
2023-03-16T01:07:42.971Z,13.07
2023-03-16T01:10:13.053Z,14.00
2023-03-16T01:12:41.714Z,14.80
2023-03-16T01:15:12.023Z,14.50
2023-03-16T01:17:41.906Z,12.53
2023-03-16T01:20:14.896Z,14.50
2023-03-16T01:22:43.375Z,14.67
2023-03-16T01:25:13.732Z,11.13
2023-03-16T01:27:44.135Z,14.07
2023-03-16T01:30:13.686Z,13.30
2023-03-16T01:32:43.649Z,15.60
2023-03-16T01:35:14.764Z,11.90
2023-03-16T01:37:43.263Z,11.37
2023-03-16T01:40:17.389Z,19.40
2023-03-16T01:42:59.908Z,18.40
2023-03-16T01:46:19.434Z,17.43
2023-03-16T01:49:08.103Z,8.90
2023-03-16T01:51:45.605Z,12.07
2023-03-16T01:54:24.040Z,13.80
2023-03-16T01:57:01.420Z,15.90
2023-03-16T01:59:35.578Z,14.03
2023-03-16T02:02:04.736Z,18.57
2023-03-16T02:04:45.639Z,13.90
2023-03-16T02:07:18.994Z,11.20
2023-03-16T02:09:52.709Z,21.53
2023-03-16T02:12:22.640Z,14.37
2023-03-16T02:14:55.310Z,16.33
2023-03-16T02:17:28.501Z,16.67
2023-03-16T02:20:18.995Z,17.57
2023-03-16T02:22:54.087Z,10.07
2023-03-16T02:25:25.718Z,22.47
2023-03-16T02:28:05.155Z,18.80
2023-03-16T02:30:37.620Z,15.97
2023-03-16T02:33:07.423Z,19.13
2023-03-16T02:35:35.757Z,17.57
2023-03-16T02:38:05.123Z,16.40
2023-03-16T02:40:39.005Z,19.43
2023-03-16T02:43:17.888Z,19.90
2023-03-16T02:46:15.308Z,16.67
2023-03-16T02:48:52.095Z,21.47
2023-03-16T02:51:21.731Z,16.00
2023-03-16T02:53:50.078Z,15.30
2023-03-16T02:56:19.024Z,16.37
2023-03-16T02:58:47.635Z,14.27
2023-03-16T03:01:21.652Z,16.27
2023-03-16T03:03:50.486Z,16.53
2023-03-16T03:06:18.797Z,20.17
2023-03-16T03:08:47.297Z,15.77
2023-03-16T03:11:15.919Z,16.33
2023-03-16T03:13:44.715Z,11.93
2023-03-16T03:16:17.884Z,20.70
2023-03-16T03:18:47.837Z,13.13
2023-03-16T03:21:16.544Z,18.80
2023-03-16T03:23:46.884Z,14.17
2023-03-16T03:26:15.849Z,17.17
2023-03-16T03:28:46.527Z,17.87
2023-03-16T03:31:17.519Z,11.60
2023-03-16T03:33:47.295Z,13.03
2023-03-16T03:36:15.814Z,11.77
2023-03-16T03:38:45.966Z,8.17
2023-03-16T03:41:14.660Z,12.80
2023-03-16T03:43:42.961Z,13.03
2023-03-16T03:46:16.374Z,9.40
2023-03-16T03:48:44.796Z,10.67
2023-03-16T03:51:14.610Z,16.23
2023-03-16T03:54:05.949Z,16.57
2023-03-16T03:57:09.587Z,12.93
2023-03-16T03:59:42.679Z,11.53
2023-03-16T04:02:29.736Z,8.53
2023-03-16T04:04:58.394Z,10.50
2023-03-16T04:07:28.164Z,12.63
2023-03-16T04:10:01.664Z,12.97
2023-03-16T04:12:38.400Z,11.13
2023-03-16T04:15:09.832Z,11.97
2023-03-16T04:17:47.672Z,11.60
2023-03-16T04:20:19.963Z,13.00
2023-03-16T04:22:58.159Z,10.57
2023-03-16T04:25:28.501Z,8.40
2023-03-16T04:27:57.000Z,9.10
2023-03-16T04:30:28.962Z,9.40
2023-03-16T04:33:05.829Z,11.57
2023-03-16T04:35:34.163Z,11.33
2023-03-16T04:38:03.850Z,8.67
2023-03-16T04:40:41.097Z,8.40
2023-03-16T04:43:17.538Z,10.60
2023-03-16T04:45:46.881Z,8.47
2023-03-16T04:48:15.648Z,12.13
2023-03-16T04:50:46.379Z,13.47
2023-03-16T04:53:16.175Z,12.60
2023-03-16T04:55:46.760Z,8.90
2023-03-16T04:58:15.678Z,10.47
2023-03-16T05:00:45.512Z,7.27
2023-03-16T05:03:21.574Z,8.07
2023-03-16T05:05:50.890Z,13.90
2023-03-16T05:08:20.979Z,10.90
2023-03-16T05:10:51.634Z,8.70
2023-03-16T05:13:21.081Z,10.47
2023-03-16T05:15:53.693Z,9.80
2023-03-16T05:18:30.039Z,9.10
2023-03-16T05:20:58.529Z,8.00
2023-03-16T05:23:35.138Z,6.77
2023-03-16T05:26:05.618Z,8.63
2023-03-16T05:28:36.966Z,7.27
2023-03-16T05:31:12.428Z,11.13
2023-03-16T05:33:45.394Z,9.40
2023-03-16T05:36:18.727Z,7.77
2023-03-16T05:38:52.318Z,8.87
2023-03-16T05:41:28.681Z,7.77
2023-03-16T05:44:08.844Z,11.80
2023-03-16T05:47:07.031Z,7.07
2023-03-16T05:49:39.542Z,11.80
2023-03-16T05:52:13.877Z,7.83
2023-03-16T05:54:44.189Z,11.40
2023-03-16T05:57:13.081Z,8.23
2023-03-16T05:59:44.084Z,8.40
2023-03-16T06:02:13.594Z,11.23
2023-03-16T06:04:42.428Z,13.50
2023-03-16T06:07:12.291Z,9.70
2023-03-16T06:09:40.831Z,11.40
2023-03-16T06:12:16.436Z,10.40
2023-03-16T06:14:45.196Z,9.23
2023-03-16T06:17:13.618Z,10.73
2023-03-16T06:19:43.530Z,9.27
2023-03-16T06:22:12.496Z,10.33
2023-03-16T06:24:41.257Z,8.73
2023-03-16T06:27:09.819Z,12.67
2023-03-16T06:29:52.985Z,10.53
2023-03-16T06:32:22.087Z,7.83
2023-03-16T06:34:50.453Z,10.00
2023-03-16T06:37:19.435Z,10.93
2023-03-16T06:39:48.877Z,8.57
2023-03-16T06:42:17.247Z,11.73
2023-03-16T06:44:46.208Z,12.07
2023-03-16T06:47:16.182Z,9.87
2023-03-16T06:49:44.449Z,16.27
2023-03-16T06:52:21.109Z,9.20
2023-03-16T06:54:49.511Z,10.87
2023-03-16T06:57:19.602Z,12.40
2023-03-16T06:59:47.860Z,12.50
2023-03-16T07:02:17.653Z,14.47
2023-03-16T07:04:46.201Z,9.97
2023-03-16T07:07:14.670Z,8.97
2023-03-16T07:09:43.055Z,10.70
2023-03-16T07:12:12.177Z,9.57
2023-03-16T07:14:41.983Z,13.57
2023-03-16T07:17:12.418Z,9.63
2023-03-16T07:19:42.053Z,10.23
2023-03-16T07:22:10.928Z,10.73
2023-03-16T07:24:41.643Z,9.47
2023-03-16T07:27:12.382Z,12.60
2023-03-16T07:29:41.250Z,14.80
2023-03-16T07:32:11.528Z,17.73
2023-03-16T07:34:42.827Z,10.77
2023-03-16T07:37:11.677Z,7.77
2023-03-16T07:39:41.909Z,12.40
2023-03-16T07:42:16.489Z,7.60
2023-03-16T07:44:54.941Z,7.67
2023-03-16T07:47:26.413Z,8.60
2023-03-16T07:49:58.985Z,8.93
2023-03-16T07:52:27.462Z,9.17
2023-03-16T07:54:56.361Z,6.13
2023-03-16T07:57:24.951Z,9.60
2023-03-16T07:59:54.070Z,9.43
2023-03-16T08:02:22.697Z,9.07
2023-03-16T08:04:51.488Z,7.33
2023-03-16T08:07:21.734Z,7.97
2023-03-16T08:09:58.967Z,6.67
2023-03-16T08:12:39.742Z,7.90
2023-03-16T08:15:10.157Z,11.07
2023-03-16T08:17:41.610Z,11.67
2023-03-16T08:20:15.616Z,9.83
2023-03-16T08:22:47.064Z,7.33
2023-03-16T08:25:19.771Z,9.17
2023-03-16T08:27:58.054Z,9.17
2023-03-16T08:30:27.436Z,12.90
2023-03-16T08:33:12.895Z,11.53
2023-03-16T08:35:45.011Z,9.17
2023-03-16T08:38:16.949Z,9.80
2023-03-16T08:40:48.396Z,8.87
2023-03-16T08:43:20.025Z,8.20
2023-03-16T08:45:50.757Z,8.70
2023-03-16T08:48:22.114Z,9.73
2023-03-16T08:50:53.941Z,12.57
2023-03-16T08:53:23.665Z,12.93
2023-03-16T08:55:51.921Z,12.13
2023-03-16T08:58:20.122Z,11.90
2023-03-16T09:00:50.537Z,8.43
2023-03-16T09:03:19.930Z,6.57
2023-03-16T09:05:49.440Z,11.57
2023-03-16T09:08:18.291Z,8.30
2023-03-16T09:10:47.950Z,6.53
2023-03-16T09:13:16.274Z,9.80
2023-03-16T09:15:44.635Z,9.40
2023-03-16T09:18:13.642Z,6.47
2023-03-16T09:20:42.607Z,8.47
2023-03-16T09:23:11.660Z,7.17
2023-03-16T09:25:39.862Z,9.57
2023-03-16T09:28:09.567Z,7.10
2023-03-16T09:30:38.409Z,9.10
2023-03-16T09:33:08.439Z,9.20
2023-03-16T09:35:37.117Z,10.03
2023-03-16T09:38:06.785Z,8.07
2023-03-16T09:40:38.164Z,5.80
2023-03-16T09:43:43.789Z,12.23
2023-03-16T09:46:17.756Z,5.20
2023-03-16T09:48:47.955Z,10.03
2023-03-16T09:51:26.219Z,7.97
2023-03-16T09:54:02.787Z,4.53
2023-03-16T09:56:36.389Z,8.37
2023-03-16T09:59:13.273Z,5.97
2023-03-16T10:01:57.110Z,7.53
2023-03-16T10:04:50.466Z,4.13
2023-03-16T10:07:35.128Z,4.90
2023-03-16T10:10:20.878Z,9.27
2023-03-16T10:12:52.872Z,4.40
2023-03-16T10:15:28.233Z,5.93
2023-03-16T10:18:02.982Z,4.47
2023-03-16T10:20:36.611Z,5.60
2023-03-16T10:23:18.047Z,4.87
2023-03-16T10:25:50.090Z,5.20
2023-03-16T10:28:21.090Z,4.83
2023-03-16T10:30:53.048Z,5.43
2023-03-16T10:33:26.560Z,8.83
2023-03-16T10:36:03.692Z,6.50
2023-03-16T10:38:38.687Z,5.07
2023-03-16T10:41:22.263Z,5.10
2023-03-16T10:43:55.875Z,6.37
2023-03-16T10:46:27.852Z,5.30
2023-03-16T10:49:01.154Z,5.43
2023-03-16T10:51:34.763Z,6.40
2023-03-16T10:54:14.181Z,6.50
2023-03-16T10:56:42.490Z,5.23
2023-03-16T10:59:17.107Z,4.90
2023-03-16T11:01:50.926Z,5.47
2023-03-16T11:04:20.904Z,2.47
2023-03-16T11:06:54.711Z,5.03
2023-03-16T11:09:28.098Z,4.50
2023-03-16T11:11:56.375Z,3.03
2023-03-16T11:14:29.325Z,3.67
2023-03-16T11:17:09.374Z,4.47
2023-03-16T11:19:44.467Z,3.27
2023-03-16T11:22:17.640Z,3.43
2023-03-16T11:24:51.843Z,4.97
2023-03-16T11:27:27.737Z,8.23
2023-03-16T11:30:11.165Z,5.63
2023-03-16T11:32:47.877Z,4.47
2023-03-16T11:35:20.653Z,3.13
2023-03-16T11:38:06.703Z,5.17
2023-03-16T11:40:49.759Z,5.93
2023-03-16T11:43:53.252Z,5.95
2023-03-16T11:46:27.340Z,3.88
2023-03-16T11:49:31.763Z,2.43
2023-03-16T11:52:14.790Z,5.88
2023-03-16T11:55:00.166Z,3.35
2023-03-16T11:57:51.224Z,5.25
2023-03-16T12:00:35.200Z,3.83
2023-03-16T12:03:43.498Z,2.43
2023-03-16T12:06:30.860Z,5.10
2023-03-16T12:09:42.774Z,4.93
2023-03-16T12:12:35.540Z,5.63
2023-03-16T12:15:26.088Z,4.27
2023-03-16T12:18:01.377Z,4.28
2023-03-16T12:20:33.867Z,2.53
2023-03-16T12:23:09.913Z,4.55
2023-03-16T12:25:43.746Z,6.93
2023-03-16T12:28:23.708Z,5.05
2023-03-16T12:31:09.206Z,3.83
2023-03-16T12:33:54.851Z,5.28
2023-03-16T12:36:58.761Z,5.65
2023-03-16T12:39:50.000Z,4.03
2023-03-16T12:42:43.748Z,4.93
2023-03-16T12:45:24.712Z,4.35
2023-03-16T12:48:12.574Z,4.70
2023-03-16T12:50:51.485Z,3.35
2023-03-16T12:53:45.083Z,4.72
2023-03-16T12:56:19.084Z,1.90
2023-03-16T12:58:50.951Z,5.20
2023-03-16T13:01:28.277Z,3.08
2023-03-16T13:04:04.476Z,2.90
2023-03-16T13:06:36.702Z,3.42
2023-03-16T13:09:07.733Z,4.05
2023-03-16T13:11:50.441Z,3.67
2023-03-16T13:14:40.343Z,2.57
2023-03-16T13:17:29.894Z,2.85
2023-03-16T13:20:30.873Z,3.15
2023-03-16T13:23:24.111Z,4.95
2023-03-16T13:26:15.676Z,3.78
2023-03-16T13:28:52.369Z,5.25
2023-03-16T13:31:26.961Z,5.30
2023-03-16T13:33:59.885Z,2.95
2023-03-16T13:36:32.150Z,2.92
2023-03-16T13:39:15.447Z,4.38
2023-03-16T13:41:45.020Z,6.57
2023-03-16T13:44:17.092Z,3.53
2023-03-16T13:46:50.710Z,3.83
2023-03-16T13:49:19.338Z,2.37
2023-03-16T13:51:48.900Z,4.75
2023-03-16T13:54:27.968Z,5.00
2023-03-16T13:57:00.724Z,3.75
2023-03-16T13:59:31.406Z,5.13
2023-03-16T14:02:02.168Z,2.88
2023-03-16T14:04:33.893Z,2.78
2023-03-16T14:07:04.554Z,5.05
2023-03-16T14:09:36.723Z,4.55
2023-03-16T14:12:06.134Z,3.33
2023-03-16T14:14:41.068Z,4.22
2023-03-16T14:17:15.014Z,4.00
2023-03-16T14:19:47.731Z,3.33
2023-03-16T14:22:20.321Z,5.50
2023-03-16T14:24:56.681Z,3.58
2023-03-16T14:27:32.907Z,4.83
2023-03-16T14:30:18.333Z,3.07
2023-03-16T14:32:59.965Z,3.37
2023-03-16T14:35:31.740Z,4.43
2023-03-16T14:38:21.577Z,4.07
2023-03-16T14:40:56.028Z,2.97
2023-03-16T14:43:32.675Z,2.03
2023-03-16T14:46:05.427Z,3.57
2023-03-16T14:48:35.358Z,5.13
2023-03-16T14:51:06.376Z,8.27
2023-03-16T14:53:34.904Z,4.80
2023-03-16T14:56:03.756Z,3.40
2023-03-16T14:58:34.222Z,3.27
2023-03-16T15:01:03.941Z,2.90
2023-03-16T15:03:37.912Z,1.93
2023-03-16T15:06:07.058Z,4.70
2023-03-16T15:08:44.200Z,4.97
2023-03-16T15:11:13.058Z,2.87
2023-03-16T15:14:03.758Z,2.10
2023-03-16T15:16:34.570Z,3.53
2023-03-16T15:19:03.112Z,1.93
2023-03-16T15:21:31.571Z,3.07
2023-03-16T15:23:59.841Z,4.83
2023-03-16T15:26:30.592Z,3.33
2023-03-16T15:28:59.317Z,3.97
2023-03-16T15:31:27.690Z,3.07
2023-03-16T15:33:57.341Z,1.90
2023-03-16T15:36:25.879Z,5.43
2023-03-16T15:38:55.707Z,3.88
2023-03-16T15:41:30.107Z,3.77
2023-03-16T15:44:00.906Z,2.30
2023-03-16T15:46:29.701Z,5.03
2023-03-16T15:48:59.386Z,5.80
2023-03-16T15:51:31.225Z,4.00
2023-03-16T15:54:03.078Z,6.37
2023-03-16T15:56:47.175Z,3.13
2023-03-16T15:59:20.544Z,2.73
2023-03-16T16:01:50.184Z,5.33
2023-03-16T16:04:24.194Z,2.90
2023-03-16T16:06:55.498Z,3.37
2023-03-16T16:09:24.094Z,3.43
2023-03-16T16:11:52.574Z,4.83
2023-03-16T16:14:26.411Z,3.87
2023-03-16T16:16:55.163Z,3.97
2023-03-16T16:19:25.450Z,4.60
2023-03-16T16:21:53.794Z,3.60
2023-03-16T16:24:22.459Z,6.20
2023-03-16T16:26:54.755Z,2.43
2023-03-16T16:29:27.093Z,4.63
2023-03-16T16:31:55.750Z,3.93
2023-03-16T16:34:27.024Z,1.83
2023-03-16T16:36:56.525Z,3.10
2023-03-16T16:39:25.665Z,4.20
2023-03-16T16:41:56.921Z,2.80
2023-03-16T16:44:34.360Z,5.07
2023-03-16T16:47:03.639Z,4.47
2023-03-16T16:49:35.052Z,5.60
2023-03-16T16:52:03.622Z,4.13
2023-03-16T16:54:33.374Z,2.97
2023-03-16T16:57:02.940Z,3.00
2023-03-16T16:59:34.449Z,7.50
2023-03-16T17:02:13.773Z,2.73
2023-03-16T17:04:43.548Z,1.27
2023-03-16T17:07:13.828Z,3.67
2023-03-16T17:09:42.148Z,3.77
2023-03-16T17:12:21.258Z,3.23
2023-03-16T17:14:49.923Z,3.30
2023-03-16T17:17:19.675Z,4.30
2023-03-16T17:19:49.412Z,3.97
2023-03-16T17:22:25.521Z,2.67
2023-03-16T17:24:55.077Z,6.13
2023-03-16T17:27:27.953Z,2.93
2023-03-16T17:29:57.921Z,5.27
2023-03-16T17:32:26.668Z,2.70
2023-03-16T17:34:56.391Z,3.43
2023-03-16T17:37:24.758Z,2.57
2023-03-16T17:39:56.256Z,3.73
2023-03-16T17:42:26.380Z,3.10
2023-03-16T17:44:55.086Z,3.50
2023-03-16T17:47:26.306Z,2.67
2023-03-16T17:49:57.135Z,2.43
2023-03-16T17:52:29.756Z,4.17
2023-03-16T17:54:58.071Z,5.40
2023-03-16T17:57:31.017Z,5.13
2023-03-16T18:00:00.652Z,2.27
2023-03-16T18:02:43.674Z,3.37
2023-03-16T18:05:22.079Z,5.03
2023-03-16T18:07:50.879Z,3.67
2023-03-16T18:10:23.584Z,4.73
2023-03-16T18:13:00.658Z,2.57
2023-03-16T18:15:33.860Z,5.00
2023-03-16T18:18:07.148Z,6.03
2023-03-16T18:20:37.512Z,5.20
2023-03-16T18:23:17.463Z,4.97
2023-03-16T18:25:48.589Z,3.37
2023-03-16T18:28:18.199Z,5.50
2023-03-16T18:30:51.965Z,6.57
2023-03-16T18:33:27.505Z,5.27
2023-03-16T18:36:01.342Z,3.90
2023-03-16T18:38:34.469Z,6.03
2023-03-16T18:41:14.269Z,5.13
2023-03-16T18:43:42.876Z,6.07
2023-03-16T18:46:25.228Z,4.90
2023-03-16T18:48:56.786Z,3.57
2023-03-16T18:51:27.647Z,5.17
2023-03-16T18:53:56.255Z,3.43
2023-03-16T18:56:27.590Z,5.53
2023-03-16T18:58:57.731Z,6.23
2023-03-16T19:01:30.488Z,5.57
2023-03-16T19:04:01.611Z,8.37
2023-03-16T19:06:34.808Z,6.97
2023-03-16T19:09:08.820Z,6.57
2023-03-16T19:11:43.517Z,5.63
2023-03-16T19:14:18.534Z,4.87
2023-03-16T19:16:47.574Z,6.13
2023-03-16T19:19:16.980Z,5.10
2023-03-16T19:21:46.720Z,6.63
2023-03-16T19:24:24.692Z,6.30
2023-03-16T19:26:53.377Z,5.53
2023-03-16T19:29:29.853Z,4.67
2023-03-16T19:32:00.125Z,5.23
2023-03-16T19:34:29.125Z,5.97
2023-03-16T19:36:58.781Z,7.17
2023-03-16T19:39:27.829Z,7.27
2023-03-16T19:41:58.902Z,4.57
2023-03-16T19:44:29.479Z,5.83
2023-03-16T19:46:59.768Z,4.60
2023-03-16T19:49:29.272Z,8.37
2023-03-16T19:51:58.972Z,6.10
2023-03-16T19:54:32.151Z,6.10
2023-03-16T19:57:11.101Z,7.27
2023-03-16T19:59:39.901Z,7.50
2023-03-16T20:02:26.535Z,8.30
2023-03-16T20:04:55.247Z,4.67
2023-03-16T20:07:25.644Z,5.30
2023-03-16T20:09:53.946Z,5.07
2023-03-16T20:12:25.995Z,6.20
2023-03-16T20:14:56.487Z,4.30
2023-03-16T20:17:28.277Z,6.37
2023-03-16T20:19:58.127Z,5.37
2023-03-16T20:22:29.298Z,6.03
2023-03-16T20:24:57.922Z,6.57
2023-03-16T20:27:28.941Z,5.63
2023-03-16T20:29:57.293Z,4.00
2023-03-16T20:32:32.427Z,8.90
2023-03-16T20:35:01.092Z,6.03
2023-03-16T20:37:32.209Z,6.17
2023-03-16T20:40:01.426Z,6.33
2023-03-16T20:42:33.309Z,6.43
2023-03-16T20:45:02.130Z,5.93
2023-03-16T20:47:30.542Z,4.77
2023-03-16T20:49:58.935Z,5.00
2023-03-16T20:52:31.214Z,6.77
2023-03-16T20:54:59.905Z,6.83
2023-03-16T20:57:30.070Z,5.50
2023-03-16T20:59:59.884Z,4.90
2023-03-16T21:02:31.953Z,3.73
2023-03-16T21:05:03.858Z,4.50
2023-03-16T21:07:34.292Z,6.77
2023-03-16T21:10:02.503Z,7.17
2023-03-16T21:12:34.588Z,7.07
2023-03-16T21:15:16.064Z,3.53
2023-03-16T21:17:44.555Z,3.33
2023-03-16T21:20:18.417Z,5.57
2023-03-16T21:22:48.178Z,5.30
2023-03-16T21:25:22.575Z,5.33
2023-03-16T21:27:53.292Z,5.10
2023-03-16T21:30:31.869Z,4.70
2023-03-16T21:33:01.894Z,5.50
2023-03-16T21:35:35.381Z,5.17
2023-03-16T21:38:14.609Z,5.63
2023-03-16T21:40:43.038Z,7.60
2023-03-16T21:43:12.109Z,5.43
2023-03-16T21:45:41.196Z,5.07
2023-03-16T21:48:18.256Z,5.47
2023-03-16T21:50:48.273Z,3.50
2023-03-16T21:53:23.481Z,3.87
2023-03-16T21:55:53.300Z,11.07
2023-03-16T21:58:23.404Z,6.37
2023-03-16T22:00:53.774Z,4.70
2023-03-16T22:03:37.900Z,6.43
2023-03-16T22:06:16.461Z,5.57
2023-03-16T22:08:46.438Z,5.40
2023-03-16T22:11:19.068Z,4.60
2023-03-16T22:13:47.452Z,4.00
2023-03-16T22:16:18.670Z,5.37
2023-03-16T22:18:49.745Z,3.73
2023-03-16T22:21:29.354Z,5.20
2023-03-16T22:24:00.183Z,5.23
2023-03-16T22:26:29.734Z,4.13
2023-03-16T22:29:00.434Z,6.17
2023-03-16T22:31:33.705Z,5.67
2023-03-16T22:34:04.275Z,5.10
2023-03-16T22:36:34.715Z,5.23
2023-03-16T22:39:08.794Z,8.40
2023-03-16T22:41:37.404Z,4.70
2023-03-16T22:44:06.683Z,3.93
2023-03-16T22:46:35.026Z,5.20
2023-03-16T22:49:03.240Z,8.13
2023-03-16T22:51:35.818Z,6.70
2023-03-16T22:54:10.683Z,6.53
2023-03-16T22:56:47.999Z,6.40
2023-03-16T22:59:20.193Z,6.67
2023-03-16T23:01:50.659Z,4.77
2023-03-16T23:04:23.095Z,5.70
2023-03-16T23:06:54.564Z,4.17
2023-03-16T23:09:25.197Z,4.97
2023-03-16T23:11:56.124Z,6.30
2023-03-16T23:14:29.081Z,6.33
2023-03-16T23:16:57.769Z,4.43
2023-03-16T23:19:30.819Z,11.03
2023-03-16T23:22:04.550Z,4.10
2023-03-16T23:24:35.520Z,4.10
2023-03-16T23:27:05.681Z,4.30
2023-03-16T23:29:34.031Z,5.67
2023-03-16T23:32:04.289Z,5.67
2023-03-16T23:34:32.547Z,4.97
2023-03-16T23:37:00.753Z,6.83
2023-03-16T23:39:29.011Z,3.20
2023-03-16T23:41:58.651Z,4.20
2023-03-16T23:44:29.827Z,4.53
2023-03-16T23:46:59.557Z,6.43
2023-03-16T23:49:32.591Z,5.47
2023-03-16T23:52:02.462Z,6.87
2023-03-16T23:54:33.289Z,3.90
2023-03-16T23:57:03.150Z,5.27
2023-03-16T23:59:31.403Z,6.60
